sensor_id;sensor_type;location;lat;lon;timestamp;temperature;humidity
21298;DHT22;10808;48.010;11.326;2024-03-29T00:01:19;4.30;99.90
21298;DHT22;10808;48.010;11.326;2024-03-29T00:03:45;4.30;99.90
21298;DHT22;10808;48.010;11.326;2024-03-29T00:06:11;4.30;99.90
21298;DHT22;10808;48.010;11.326;2024-03-29T00:08:37;4.30;99.90
21298;DHT22;10808;48.010;11.326;2024-03-29T00:11:03;4.30;99.90
21298;DHT22;10808;48.010;11.326;2024-03-29T00:13:29;4.40;99.90
21298;DHT22;10808;48.010;11.326;2024-03-29T00:15:55;4.30;99.90
21298;DHT22;10808;48.010;11.326;2024-03-29T00:18:21;4.20;99.90
21298;DHT22;10808;48.010;11.326;2024-03-29T00:20:47;4.20;99.90
21298;DHT22;10808;48.010;11.326;2024-03-29T00:23:13;4.20;99.90
21298;DHT22;10808;48.010;11.326;2024-03-29T00:25:39;4.20;99.90
21298;DHT22;10808;48.010;11.326;2024-03-29T00:28:06;4.20;99.90
21298;DHT22;10808;48.010;11.326;2024-03-29T00:30:32;4.10;99.90
21298;DHT22;10808;48.010;11.326;2024-03-29T00:32:58;4.10;99.90
21298;DHT22;10808;48.010;11.326;2024-03-29T00:35:24;4.10;99.90
21298;DHT22;10808;48.010;11.326;2024-03-29T00:37:50;4.00;99.90
21298;DHT22;10808;48.010;11.326;2024-03-29T00:40:16;4.00;99.90
21298;DHT22;10808;48.010;11.326;2024-03-29T00:42:42;3.90;99.90
21298;DHT22;10808;48.010;11.326;2024-03-29T00:45:09;3.90;99.90
21298;DHT22;10808;48.010;11.326;2024-03-29T00:47:35;3.80;99.90
21298;DHT22;10808;48.010;11.326;2024-03-29T00:50:01;3.80;99.90
21298;DHT22;10808;48.010;11.326;2024-03-29T00:52:27;3.80;99.90
21298;DHT22;10808;48.010;11.326;2024-03-29T00:54:53;3.80;99.90
21298;DHT22;10808;48.010;11.326;2024-03-29T00:57:19;3.70;99.90
21298;DHT22;10808;48.010;11.326;2024-03-29T00:59:46;3.70;99.90
21298;DHT22;10808;48.010;11.326;2024-03-29T01:02:13;3.70;99.90
21298;DHT22;10808;48.010;11.326;2024-03-29T01:04:39;3.60;99.90
21298;DHT22;10808;48.010;11.326;2024-03-29T01:07:06;3.50;99.90
21298;DHT22;10808;48.010;11.326;2024-03-29T01:09:33;3.50;99.90
21298;DHT22;10808;48.010;11.326;2024-03-29T01:11:59;3.40;99.90
21298;DHT22;10808;48.010;11.326;2024-03-29T01:14:25;3.40;99.90
21298;DHT22;10808;48.010;11.326;2024-03-29T01:16:51;3.40;99.90
21298;DHT22;10808;48.010;11.326;2024-03-29T01:19:18;3.40;99.90
21298;DHT22;10808;48.010;11.326;2024-03-29T01:21:44;3.40;99.90
21298;DHT22;10808;48.010;11.326;2024-03-29T01:24:10;3.40;99.90
21298;DHT22;10808;48.010;11.326;2024-03-29T01:26:37;3.40;99.90
21298;DHT22;10808;48.010;11.326;2024-03-29T01:29:03;3.40;99.90
21298;DHT22;10808;48.010;11.326;2024-03-29T01:31:29;3.40;99.90
21298;DHT22;10808;48.010;11.326;2024-03-29T01:33:55;3.30;99.90
21298;DHT22;10808;48.010;11.326;2024-03-29T01:36:23;3.30;99.90
21298;DHT22;10808;48.010;11.326;2024-03-29T01:38:49;3.20;99.90
21298;DHT22;10808;48.010;11.326;2024-03-29T01:41:20;3.20;99.90
21298;DHT22;10808;48.010;11.326;2024-03-29T01:43:46;3.20;99.90
21298;DHT22;10808;48.010;11.326;2024-03-29T01:46:12;3.20;99.90
21298;DHT22;10808;48.010;11.326;2024-03-29T01:48:38;3.20;99.90
21298;DHT22;10808;48.010;11.326;2024-03-29T01:51:04;3.30;99.90
21298;DHT22;10808;48.010;11.326;2024-03-29T01:53:31;3.30;99.90
21298;DHT22;10808;48.010;11.326;2024-03-29T01:55:58;3.30;99.90
21298;DHT22;10808;48.010;11.326;2024-03-29T01:58:25;3.40;99.90
21298;DHT22;10808;48.010;11.326;2024-03-29T02:00:53;3.40;99.90
21298;DHT22;10808;48.010;11.326;2024-03-29T02:03:20;3.40;99.90
21298;DHT22;10808;48.010;11.326;2024-03-29T02:05:48;3.40;99.90
21298;DHT22;10808;48.010;11.326;2024-03-29T02:08:14;3.40;99.90
21298;DHT22;10808;48.010;11.326;2024-03-29T02:10:42;3.40;99.90
21298;DHT22;10808;48.010;11.326;2024-03-29T02:13:08;3.50;99.90
21298;DHT22;10808;48.010;11.326;2024-03-29T02:15:34;3.40;99.90
21298;DHT22;10808;48.010;11.326;2024-03-29T02:18:00;3.50;99.90
21298;DHT22;10808;48.010;11.326;2024-03-29T02:20:26;3.40;99.90
21298;DHT22;10808;48.010;11.326;2024-03-29T02:22:59;3.40;99.90
21298;DHT22;10808;48.010;11.326;2024-03-29T02:25:26;3.50;99.90
21298;DHT22;10808;48.010;11.326;2024-03-29T02:27:52;3.40;99.90
21298;DHT22;10808;48.010;11.326;2024-03-29T02:30:19;3.40;99.90
21298;DHT22;10808;48.010;11.326;2024-03-29T02:32:46;3.40;99.90
21298;DHT22;10808;48.010;11.326;2024-03-29T02:35:12;3.40;99.90
21298;DHT22;10808;48.010;11.326;2024-03-29T02:37:38;3.40;99.90
21298;DHT22;10808;48.010;11.326;2024-03-29T02:40:05;3.40;99.90
21298;DHT22;10808;48.010;11.326;2024-03-29T02:42:32;3.40;99.90
21298;DHT22;10808;48.010;11.326;2024-03-29T02:44:58;3.40;99.90
21298;DHT22;10808;48.010;11.326;2024-03-29T02:47:24;3.40;99.90
21298;DHT22;10808;48.010;11.326;2024-03-29T02:49:50;3.40;99.90
21298;DHT22;10808;48.010;11.326;2024-03-29T02:52:16;3.40;99.90
21298;DHT22;10808;48.010;11.326;2024-03-29T02:54:42;3.40;99.90
21298;DHT22;10808;48.010;11.326;2024-03-29T02:57:08;3.40;99.90
21298;DHT22;10808;48.010;11.326;2024-03-29T02:59:34;3.40;99.90
21298;DHT22;10808;48.010;11.326;2024-03-29T03:02:00;3.40;99.90
21298;DHT22;10808;48.010;11.326;2024-03-29T03:04:26;3.40;99.90
21298;DHT22;10808;48.010;11.326;2024-03-29T03:06:52;3.40;99.90
21298;DHT22;10808;48.010;11.326;2024-03-29T03:09:18;3.30;99.90
21298;DHT22;10808;48.010;11.326;2024-03-29T03:12:03;3.30;99.90
21298;DHT22;10808;48.010;11.326;2024-03-29T03:14:29;3.30;99.90
21298;DHT22;10808;48.010;11.326;2024-03-29T03:16:55;3.30;99.90
21298;DHT22;10808;48.010;11.326;2024-03-29T03:19:21;3.30;99.90
21298;DHT22;10808;48.010;11.326;2024-03-29T03:21:50;3.20;99.90
21298;DHT22;10808;48.010;11.326;2024-03-29T03:24:16;3.20;99.90
21298;DHT22;10808;48.010;11.326;2024-03-29T03:26:42;3.20;99.90
21298;DHT22;10808;48.010;11.326;2024-03-29T03:29:08;3.20;99.90
21298;DHT22;10808;48.010;11.326;2024-03-29T03:31:35;3.20;99.90
21298;DHT22;10808;48.010;11.326;2024-03-29T03:34:01;3.20;99.90
21298;DHT22;10808;48.010;11.326;2024-03-29T03:36:28;3.20;99.90
21298;DHT22;10808;48.010;11.326;2024-03-29T03:38:54;3.20;99.90
21298;DHT22;10808;48.010;11.326;2024-03-29T03:41:20;3.20;99.90
21298;DHT22;10808;48.010;11.326;2024-03-29T03:43:46;3.20;99.90
21298;DHT22;10808;48.010;11.326;2024-03-29T03:46:12;3.20;99.90
21298;DHT22;10808;48.010;11.326;2024-03-29T03:48:38;3.20;99.90
21298;DHT22;10808;48.010;11.326;2024-03-29T03:51:04;3.20;99.90
21298;DHT22;10808;48.010;11.326;2024-03-29T03:53:30;3.20;99.90
21298;DHT22;10808;48.010;11.326;2024-03-29T03:55:56;3.30;99.90
21298;DHT22;10808;48.010;11.326;2024-03-29T03:58:22;3.30;99.90
21298;DHT22;10808;48.010;11.326;2024-03-29T04:00:48;3.30;99.90
21298;DHT22;10808;48.010;11.326;2024-03-29T04:03:14;3.30;99.90
21298;DHT22;10808;48.010;11.326;2024-03-29T04:05:40;3.30;99.90
21298;DHT22;10808;48.010;11.326;2024-03-29T04:08:06;3.40;99.90
21298;DHT22;10808;48.010;11.326;2024-03-29T04:10:37;3.40;99.90
21298;DHT22;10808;48.010;11.326;2024-03-29T04:13:07;3.40;99.90
21298;DHT22;10808;48.010;11.326;2024-03-29T04:15:33;3.30;99.90
21298;DHT22;10808;48.010;11.326;2024-03-29T04:17:59;3.30;99.90
21298;DHT22;10808;48.010;11.326;2024-03-29T04:20:26;3.30;99.90
21298;DHT22;10808;48.010;11.326;2024-03-29T04:22:52;3.30;99.90
21298;DHT22;10808;48.010;11.326;2024-03-29T04:25:18;3.30;99.90
21298;DHT22;10808;48.010;11.326;2024-03-29T04:27:44;3.40;99.90
21298;DHT22;10808;48.010;11.326;2024-03-29T04:30:10;3.40;99.90
21298;DHT22;10808;48.010;11.326;2024-03-29T04:32:36;3.40;99.90
21298;DHT22;10808;48.010;11.326;2024-03-29T04:35:02;3.40;99.90
21298;DHT22;10808;48.010;11.326;2024-03-29T04:37:28;3.40;99.90
21298;DHT22;10808;48.010;11.326;2024-03-29T04:39:54;3.40;99.90
21298;DHT22;10808;48.010;11.326;2024-03-29T04:42:20;3.40;99.90
21298;DHT22;10808;48.010;11.326;2024-03-29T04:44:46;3.40;99.90
21298;DHT22;10808;48.010;11.326;2024-03-29T04:47:12;3.40;99.90
21298;DHT22;10808;48.010;11.326;2024-03-29T04:49:39;3.40;99.90
21298;DHT22;10808;48.010;11.326;2024-03-29T04:52:06;3.40;99.90
21298;DHT22;10808;48.010;11.326;2024-03-29T04:54:33;3.40;99.90
21298;DHT22;10808;48.010;11.326;2024-03-29T04:57:02;3.40;99.90
21298;DHT22;10808;48.010;11.326;2024-03-29T04:59:29;3.30;99.90
21298;DHT22;10808;48.010;11.326;2024-03-29T05:01:55;3.30;99.90
21298;DHT22;10808;48.010;11.326;2024-03-29T05:04:25;3.40;99.90
21298;DHT22;10808;48.010;11.326;2024-03-29T05:06:56;3.40;99.90
21298;DHT22;10808;48.010;11.326;2024-03-29T05:09:25;3.40;99.90
21298;DHT22;10808;48.010;11.326;2024-03-29T05:11:51;3.40;99.90
21298;DHT22;10808;48.010;11.326;2024-03-29T05:14:19;3.40;99.90
21298;DHT22;10808;48.010;11.326;2024-03-29T05:16:46;3.40;99.90
21298;DHT22;10808;48.010;11.326;2024-03-29T05:19:15;3.40;99.90
21298;DHT22;10808;48.010;11.326;2024-03-29T05:21:42;3.40;99.90
21298;DHT22;10808;48.010;11.326;2024-03-29T05:24:08;3.40;99.90
21298;DHT22;10808;48.010;11.326;2024-03-29T05:26:35;3.50;99.90
21298;DHT22;10808;48.010;11.326;2024-03-29T05:29:01;3.50;99.90
21298;DHT22;10808;48.010;11.326;2024-03-29T05:31:29;3.50;99.90
21298;DHT22;10808;48.010;11.326;2024-03-29T05:33:55;3.50;99.90
21298;DHT22;10808;48.010;11.326;2024-03-29T05:36:21;3.60;99.90
21298;DHT22;10808;48.010;11.326;2024-03-29T05:38:47;3.60;99.90
21298;DHT22;10808;48.010;11.326;2024-03-29T05:41:13;3.70;99.90
21298;DHT22;10808;48.010;11.326;2024-03-29T05:43:39;3.70;99.90
21298;DHT22;10808;48.010;11.326;2024-03-29T05:46:08;3.80;99.90
21298;DHT22;10808;48.010;11.326;2024-03-29T05:48:34;3.80;99.90
21298;DHT22;10808;48.010;11.326;2024-03-29T05:51:01;3.90;99.90
21298;DHT22;10808;48.010;11.326;2024-03-29T05:53:27;4.00;99.90
21298;DHT22;10808;48.010;11.326;2024-03-29T05:55:53;4.10;99.90
21298;DHT22;10808;48.010;11.326;2024-03-29T05:58:19;4.10;99.90
21298;DHT22;10808;48.010;11.326;2024-03-29T06:00:47;4.10;99.90
21298;DHT22;10808;48.010;11.326;2024-03-29T06:03:13;4.30;99.90
21298;DHT22;10808;48.010;11.326;2024-03-29T06:05:42;4.30;99.90
21298;DHT22;10808;48.010;11.326;2024-03-29T06:08:08;4.40;99.90
21298;DHT22;10808;48.010;11.326;2024-03-29T06:10:34;4.50;99.90
21298;DHT22;10808;48.010;11.326;2024-03-29T06:13:00;4.50;99.90
21298;DHT22;10808;48.010;11.326;2024-03-29T06:15:44;4.60;99.90
21298;DHT22;10808;48.010;11.326;2024-03-29T06:18:29;4.80;99.90
21298;DHT22;10808;48.010;11.326;2024-03-29T06:20:55;4.90;99.90
21298;DHT22;10808;48.010;11.326;2024-03-29T06:23:21;5.00;99.90
21298;DHT22;10808;48.010;11.326;2024-03-29T06:25:47;5.20;99.90
21298;DHT22;10808;48.010;11.326;2024-03-29T06:28:16;5.30;99.90
21298;DHT22;10808;48.010;11.326;2024-03-29T06:30:46;5.50;99.90
21298;DHT22;10808;48.010;11.326;2024-03-29T06:33:12;5.60;99.90
21298;DHT22;10808;48.010;11.326;2024-03-29T06:35:38;5.80;99.90
21298;DHT22;10808;48.010;11.326;2024-03-29T06:38:04;5.90;99.90
21298;DHT22;10808;48.010;11.326;2024-03-29T06:40:30;6.10;99.90
21298;DHT22;10808;48.010;11.326;2024-03-29T06:42:56;6.30;99.90
21298;DHT22;10808;48.010;11.326;2024-03-29T06:45:24;6.50;99.90
21298;DHT22;10808;48.010;11.326;2024-03-29T06:47:50;6.60;99.90
21298;DHT22;10808;48.010;11.326;2024-03-29T06:50:16;6.80;99.90
21298;DHT22;10808;48.010;11.326;2024-03-29T06:52:42;7.00;99.90
21298;DHT22;10808;48.010;11.326;2024-03-29T06:55:08;7.20;99.90
21298;DHT22;10808;48.010;11.326;2024-03-29T06:57:35;7.50;99.90
21298;DHT22;10808;48.010;11.326;2024-03-29T07:00:02;7.70;99.90
21298;DHT22;10808;48.010;11.326;2024-03-29T07:02:29;8.00;99.90
21298;DHT22;10808;48.010;11.326;2024-03-29T07:04:55;8.20;99.90
21298;DHT22;10808;48.010;11.326;2024-03-29T07:07:21;8.50;99.90
21298;DHT22;10808;48.010;11.326;2024-03-29T07:09:47;8.80;99.90
21298;DHT22;10808;48.010;11.326;2024-03-29T07:12:13;9.00;99.90
21298;DHT22;10808;48.010;11.326;2024-03-29T07:14:39;9.20;99.90
21298;DHT22;10808;48.010;11.326;2024-03-29T07:17:05;9.50;99.90
21298;DHT22;10808;48.010;11.326;2024-03-29T07:19:31;9.80;99.90
21298;DHT22;10808;48.010;11.326;2024-03-29T07:21:57;10.10;99.90
21298;DHT22;10808;48.010;11.326;2024-03-29T07:24:23;10.30;99.90
21298;DHT22;10808;48.010;11.326;2024-03-29T07:26:49;10.60;99.90
21298;DHT22;10808;48.010;11.326;2024-03-29T07:29:15;10.80;99.90
21298;DHT22;10808;48.010;11.326;2024-03-29T07:31:41;11.00;99.90
21298;DHT22;10808;48.010;11.326;2024-03-29T07:34:07;11.20;99.90
21298;DHT22;10808;48.010;11.326;2024-03-29T07:36:33;11.40;99.90
21298;DHT22;10808;48.010;11.326;2024-03-29T07:39:02;11.60;99.80
21298;DHT22;10808;48.010;11.326;2024-03-29T07:41:28;11.70;99.40
21298;DHT22;10808;48.010;11.326;2024-03-29T07:43:55;12.00;98.90
21298;DHT22;10808;48.010;11.326;2024-03-29T07:46:35;12.20;98.20
21298;DHT22;10808;48.010;11.326;2024-03-29T07:49:01;12.40;98.10
21298;DHT22;10808;48.010;11.326;2024-03-29T07:51:29;12.60;97.70
21298;DHT22;10808;48.010;11.326;2024-03-29T07:53:55;12.80;98.60
21298;DHT22;10808;48.010;11.326;2024-03-29T07:56:21;13.00;97.70
21298;DHT22;10808;48.010;11.326;2024-03-29T07:58:52;13.30;97.90
21298;DHT22;10808;48.010;11.326;2024-03-29T08:01:22;13.50;97.20
21298;DHT22;10808;48.010;11.326;2024-03-29T08:03:52;13.70;96.90
21298;DHT22;10808;48.010;11.326;2024-03-29T08:06:21;13.90;96.30
21298;DHT22;10808;48.010;11.326;2024-03-29T08:08:49;14.10;96.20
21298;DHT22;10808;48.010;11.326;2024-03-29T08:11:17;14.30;96.10
21298;DHT22;10808;48.010;11.326;2024-03-29T08:13:43;14.50;95.70
21298;DHT22;10808;48.010;11.326;2024-03-29T08:16:09;14.70;95.10
21298;DHT22;10808;48.010;11.326;2024-03-29T08:18:36;14.90;95.30
21298;DHT22;10808;48.010;11.326;2024-03-29T08:21:03;15.20;95.80
21298;DHT22;10808;48.010;11.326;2024-03-29T08:23:29;15.40;95.20
21298;DHT22;10808;48.010;11.326;2024-03-29T08:25:55;15.60;95.20
21298;DHT22;10808;48.010;11.326;2024-03-29T08:28:24;15.90;95.10
21298;DHT22;10808;48.010;11.326;2024-03-29T08:31:02;16.10;95.60
21298;DHT22;10808;48.010;11.326;2024-03-29T08:33:28;16.40;95.60
21298;DHT22;10808;48.010;11.326;2024-03-29T08:35:56;16.60;93.30
21298;DHT22;10808;48.010;11.326;2024-03-29T08:38:23;16.80;92.80
21298;DHT22;10808;48.010;11.326;2024-03-29T08:40:49;17.10;92.30
21298;DHT22;10808;48.010;11.326;2024-03-29T08:43:16;17.30;92.10
21298;DHT22;10808;48.010;11.326;2024-03-29T08:45:45;17.40;91.00
21298;DHT22;10808;48.010;11.326;2024-03-29T08:48:11;17.50;90.30
21298;DHT22;10808;48.010;11.326;2024-03-29T08:50:37;17.70;91.60
21298;DHT22;10808;48.010;11.326;2024-03-29T08:53:03;17.80;91.70
21298;DHT22;10808;48.010;11.326;2024-03-29T08:55:30;18.00;90.20
21298;DHT22;10808;48.010;11.326;2024-03-29T08:57:58;18.10;90.20
21298;DHT22;10808;48.010;11.326;2024-03-29T09:00:28;18.30;90.90
21298;DHT22;10808;48.010;11.326;2024-03-29T09:02:55;18.40;90.40
21298;DHT22;10808;48.010;11.326;2024-03-29T09:05:22;18.50;90.60
21298;DHT22;10808;48.010;11.326;2024-03-29T09:07:49;18.60;89.50
21298;DHT22;10808;48.010;11.326;2024-03-29T09:10:16;18.60;88.40
21298;DHT22;10808;48.010;11.326;2024-03-29T09:12:42;18.60;89.50
21298;DHT22;10808;48.010;11.326;2024-03-29T09:15:08;18.70;90.30
21298;DHT22;10808;48.010;11.326;2024-03-29T09:17:40;18.70;87.70
21298;DHT22;10808;48.010;11.326;2024-03-29T09:20:06;18.80;86.90
21298;DHT22;10808;48.010;11.326;2024-03-29T09:22:33;18.90;86.60
21298;DHT22;10808;48.010;11.326;2024-03-29T09:24:59;18.90;87.20
21298;DHT22;10808;48.010;11.326;2024-03-29T09:27:27;19.00;89.30
21298;DHT22;10808;48.010;11.326;2024-03-29T09:29:54;19.20;88.30
21298;DHT22;10808;48.010;11.326;2024-03-29T09:32:21;19.20;85.40
21298;DHT22;10808;48.010;11.326;2024-03-29T09:34:48;19.30;83.80
21298;DHT22;10808;48.010;11.326;2024-03-29T09:37:14;19.20;83.60
21298;DHT22;10808;48.010;11.326;2024-03-29T09:39:41;19.30;84.00
21298;DHT22;10808;48.010;11.326;2024-03-29T09:42:07;19.30;85.20
21298;DHT22;10808;48.010;11.326;2024-03-29T09:44:35;19.30;83.30
21298;DHT22;10808;48.010;11.326;2024-03-29T09:47:03;19.30;81.50
21298;DHT22;10808;48.010;11.326;2024-03-29T09:49:31;19.40;83.60
21298;DHT22;10808;48.010;11.326;2024-03-29T09:52:01;19.60;84.20
21298;DHT22;10808;48.010;11.326;2024-03-29T09:54:28;19.60;83.20
21298;DHT22;10808;48.010;11.326;2024-03-29T09:56:57;19.60;83.70
21298;DHT22;10808;48.010;11.326;2024-03-29T09:59:24;19.70;83.10
21298;DHT22;10808;48.010;11.326;2024-03-29T10:01:54;19.80;85.20
21298;DHT22;10808;48.010;11.326;2024-03-29T10:04:22;19.90;82.80
21298;DHT22;10808;48.010;11.326;2024-03-29T10:06:49;20.00;85.40
21298;DHT22;10808;48.010;11.326;2024-03-29T10:09:18;20.00;85.10
21298;DHT22;10808;48.010;11.326;2024-03-29T10:11:45;20.20;82.90
21298;DHT22;10808;48.010;11.326;2024-03-29T10:14:12;20.30;82.20
21298;DHT22;10808;48.010;11.326;2024-03-29T10:16:41;20.50;82.80
21298;DHT22;10808;48.010;11.326;2024-03-29T10:19:08;20.50;80.90
21298;DHT22;10808;48.010;11.326;2024-03-29T10:21:34;20.60;82.70
21298;DHT22;10808;48.010;11.326;2024-03-29T10:24:15;20.80;81.10
21298;DHT22;10808;48.010;11.326;2024-03-29T10:26:43;21.00;80.80
21298;DHT22;10808;48.010;11.326;2024-03-29T10:29:09;21.10;80.20
21298;DHT22;10808;48.010;11.326;2024-03-29T10:31:36;21.20;79.20
21298;DHT22;10808;48.010;11.326;2024-03-29T10:34:03;21.20;79.10
21298;DHT22;10808;48.010;11.326;2024-03-29T10:36:34;21.30;78.40
21298;DHT22;10808;48.010;11.326;2024-03-29T10:39:11;21.40;77.90
21298;DHT22;10808;48.010;11.326;2024-03-29T10:41:41;21.70;81.90
21298;DHT22;10808;48.010;11.326;2024-03-29T10:44:10;22.00;79.60
21298;DHT22;10808;48.010;11.326;2024-03-29T10:46:37;22.30;80.20
21298;DHT22;10808;48.010;11.326;2024-03-29T10:49:09;22.20;74.80
21298;DHT22;10808;48.010;11.326;2024-03-29T10:51:38;22.20;74.60
21298;DHT22;10808;48.010;11.326;2024-03-29T10:54:09;22.30;74.50
21298;DHT22;10808;48.010;11.326;2024-03-29T10:56:39;22.30;77.50
21298;DHT22;10808;48.010;11.326;2024-03-29T11:01:59;22.60;75.20
21298;DHT22;10808;48.010;11.326;2024-03-29T11:04:33;22.70;74.90
21298;DHT22;10808;48.010;11.326;2024-03-29T11:07:05;22.80;72.70
21298;DHT22;10808;48.010;11.326;2024-03-29T11:09:33;22.70;72.90
21298;DHT22;10808;48.010;11.326;2024-03-29T11:12:01;22.80;74.10
21298;DHT22;10808;48.010;11.326;2024-03-29T11:14:45;22.80;73.70
21298;DHT22;10808;48.010;11.326;2024-03-29T11:17:13;22.70;73.30
21298;DHT22;10808;48.010;11.326;2024-03-29T11:19:40;22.70;70.60
21298;DHT22;10808;48.010;11.326;2024-03-29T11:22:07;22.80;73.30
21298;DHT22;10808;48.010;11.326;2024-03-29T11:24:33;23.10;72.40
21298;DHT22;10808;48.010;11.326;2024-03-29T11:27:13;23.10;71.10
21298;DHT22;10808;48.010;11.326;2024-03-29T11:29:41;23.20;72.90
21298;DHT22;10808;48.010;11.326;2024-03-29T11:32:09;23.40;73.20
21298;DHT22;10808;48.010;11.326;2024-03-29T11:34:35;23.40;73.30
21298;DHT22;10808;48.010;11.326;2024-03-29T11:37:07;23.30;71.90
21298;DHT22;10808;48.010;11.326;2024-03-29T11:39:35;23.30;70.50
21298;DHT22;10808;48.010;11.326;2024-03-29T11:42:02;23.20;71.20
21298;DHT22;10808;48.010;11.326;2024-03-29T11:44:28;23.30;74.00
21298;DHT22;10808;48.010;11.326;2024-03-29T11:46:58;23.30;73.00
21298;DHT22;10808;48.010;11.326;2024-03-29T11:49:24;23.30;74.10
21298;DHT22;10808;48.010;11.326;2024-03-29T11:51:50;23.30;71.40
21298;DHT22;10808;48.010;11.326;2024-03-29T11:54:16;23.30;72.30
21298;DHT22;10808;48.010;11.326;2024-03-29T11:56:42;23.40;72.60
21298;DHT22;10808;48.010;11.326;2024-03-29T11:59:08;23.50;72.50
21298;DHT22;10808;48.010;11.326;2024-03-29T12:01:36;23.70;73.50
21298;DHT22;10808;48.010;11.326;2024-03-29T12:04:05;23.80;74.00
21298;DHT22;10808;48.010;11.326;2024-03-29T12:06:31;24.10;72.80
21298;DHT22;10808;48.010;11.326;2024-03-29T12:08:57;24.30;71.30
21298;DHT22;10808;48.010;11.326;2024-03-29T12:11:23;24.40;70.70
21298;DHT22;10808;48.010;11.326;2024-03-29T12:13:51;24.60;70.20
21298;DHT22;10808;48.010;11.326;2024-03-29T12:16:17;24.80;69.50
21298;DHT22;10808;48.010;11.326;2024-03-29T12:18:47;25.00;71.30
21298;DHT22;10808;48.010;11.326;2024-03-29T12:21:13;25.00;67.50
21298;DHT22;10808;48.010;11.326;2024-03-29T12:23:47;25.30;70.70
21298;DHT22;10808;48.010;11.326;2024-03-29T12:26:13;25.50;68.70
21298;DHT22;10808;48.010;11.326;2024-03-29T12:28:39;25.70;67.60
21298;DHT22;10808;48.010;11.326;2024-03-29T12:31:09;26.00;68.30
21298;DHT22;10808;48.010;11.326;2024-03-29T12:33:35;26.20;67.30
21298;DHT22;10808;48.010;11.326;2024-03-29T12:36:01;26.40;66.80
21298;DHT22;10808;48.010;11.326;2024-03-29T12:38:29;26.80;67.80
21298;DHT22;10808;48.010;11.326;2024-03-29T12:40:56;26.90;67.10
21298;DHT22;10808;48.010;11.326;2024-03-29T12:43:23;27.10;65.80
21298;DHT22;10808;48.010;11.326;2024-03-29T12:45:51;27.20;66.40
21298;DHT22;10808;48.010;11.326;2024-03-29T12:48:18;27.40;65.10
21298;DHT22;10808;48.010;11.326;2024-03-29T12:50:47;27.50;65.30
21298;DHT22;10808;48.010;11.326;2024-03-29T12:53:14;27.90;63.50
21298;DHT22;10808;48.010;11.326;2024-03-29T12:55:46;28.00;65.00
21298;DHT22;10808;48.010;11.326;2024-03-29T12:58:13;28.00;62.20
21298;DHT22;10808;48.010;11.326;2024-03-29T13:00:41;28.00;60.10
21298;DHT22;10808;48.010;11.326;2024-03-29T13:03:07;28.30;61.10
21298;DHT22;10808;48.010;11.326;2024-03-29T13:05:37;28.40;59.30
21298;DHT22;10808;48.010;11.326;2024-03-29T13:08:13;28.50;60.50
21298;DHT22;10808;48.010;11.326;2024-03-29T13:10:42;28.50;60.50
21298;DHT22;10808;48.010;11.326;2024-03-29T13:13:08;28.50;58.30
21298;DHT22;10808;48.010;11.326;2024-03-29T13:15:36;28.50;59.50
21298;DHT22;10808;48.010;11.326;2024-03-29T13:18:03;28.90;57.90
21298;DHT22;10808;48.010;11.326;2024-03-29T13:20:31;29.00;57.50
21298;DHT22;10808;48.010;11.326;2024-03-29T13:22:58;29.20;59.90
21298;DHT22;10808;48.010;11.326;2024-03-29T13:25:24;29.50;59.60
21298;DHT22;10808;48.010;11.326;2024-03-29T13:47:01;28.50;58.30
21298;DHT22;10808;48.010;11.326;2024-03-29T13:49:30;28.40;56.90
21298;DHT22;10808;48.010;11.326;2024-03-29T13:51:56;28.20;56.80
21298;DHT22;10808;48.010;11.326;2024-03-29T13:54:23;28.10;56.70
21298;DHT22;10808;48.010;11.326;2024-03-29T13:56:49;27.90;58.20
21298;DHT22;10808;48.010;11.326;2024-03-29T13:59:15;27.90;58.50
21298;DHT22;10808;48.010;11.326;2024-03-29T14:01:41;27.80;58.90
21298;DHT22;10808;48.010;11.326;2024-03-29T14:04:09;27.70;60.20
21298;DHT22;10808;48.010;11.326;2024-03-29T14:06:35;27.60;61.60
21298;DHT22;10808;48.010;11.326;2024-03-29T14:09:01;27.60;62.80
21298;DHT22;10808;48.010;11.326;2024-03-29T14:11:28;27.70;62.50
21298;DHT22;10808;48.010;11.326;2024-03-29T14:13:54;27.70;60.10
21298;DHT22;10808;48.010;11.326;2024-03-29T14:16:22;27.50;61.10
21298;DHT22;10808;48.010;11.326;2024-03-29T14:18:48;27.30;58.90
21298;DHT22;10808;48.010;11.326;2024-03-29T14:21:14;27.00;58.40
21298;DHT22;10808;48.010;11.326;2024-03-29T14:23:40;26.70;58.20
21298;DHT22;10808;48.010;11.326;2024-03-29T14:26:07;26.50;56.90
21298;DHT22;10808;48.010;11.326;2024-03-29T14:28:33;26.40;58.40
21298;DHT22;10808;48.010;11.326;2024-03-29T14:30:59;26.30;58.40
21298;DHT22;10808;48.010;11.326;2024-03-29T14:33:25;26.20;57.30
21298;DHT22;10808;48.010;11.326;2024-03-29T14:35:51;26.00;58.10
21298;DHT22;10808;48.010;11.326;2024-03-29T14:38:17;26.10;59.30
21298;DHT22;10808;48.010;11.326;2024-03-29T14:40:43;26.00;58.40
21298;DHT22;10808;48.010;11.326;2024-03-29T14:43:09;25.90;59.60
21298;DHT22;10808;48.010;11.326;2024-03-29T14:45:35;25.90;60.30
21298;DHT22;10808;48.010;11.326;2024-03-29T14:48:01;25.90;59.40
21298;DHT22;10808;48.010;11.326;2024-03-29T14:50:27;26.00;60.40
21298;DHT22;10808;48.010;11.326;2024-03-29T14:52:53;25.80;58.30
21298;DHT22;10808;48.010;11.326;2024-03-29T14:55:19;25.90;59.90
21298;DHT22;10808;48.010;11.326;2024-03-29T14:57:45;25.90;58.90
21298;DHT22;10808;48.010;11.326;2024-03-29T15:00:12;26.00;60.10
21298;DHT22;10808;48.010;11.326;2024-03-29T15:02:39;26.10;58.60
21298;DHT22;10808;48.010;11.326;2024-03-29T15:05:06;26.10;57.40
21298;DHT22;10808;48.010;11.326;2024-03-29T15:07:32;26.20;58.00
21298;DHT22;10808;48.010;11.326;2024-03-29T15:09:58;26.20;56.90
21298;DHT22;10808;48.010;11.326;2024-03-29T15:12:26;26.20;57.30
21298;DHT22;10808;48.010;11.326;2024-03-29T15:14:52;26.10;58.40
21298;DHT22;10808;48.010;11.326;2024-03-29T15:17:18;25.90;57.30
21298;DHT22;10808;48.010;11.326;2024-03-29T15:19:47;25.80;57.10
21298;DHT22;10808;48.010;11.326;2024-03-29T15:22:16;25.50;57.80
21298;DHT22;10808;48.010;11.326;2024-03-29T15:24:42;25.40;59.40
21298;DHT22;10808;48.010;11.326;2024-03-29T15:27:08;25.20;58.80
21298;DHT22;10808;48.010;11.326;2024-03-29T15:29:42;25.00;59.70
21298;DHT22;10808;48.010;11.326;2024-03-29T15:32:08;24.80;58.60
21298;DHT22;10808;48.010;11.326;2024-03-29T15:34:34;24.70;60.10
21298;DHT22;10808;48.010;11.326;2024-03-29T15:37:03;24.50;59.60
21298;DHT22;10808;48.010;11.326;2024-03-29T15:39:29;24.30;60.20
21298;DHT22;10808;48.010;11.326;2024-03-29T15:41:55;24.20;62.30
21298;DHT22;10808;48.010;11.326;2024-03-29T15:44:21;24.10;61.50